createdAt,value
2022-12-08T00:01:31.184Z,97727.36
2022-12-08T00:05:16.789Z,97727.95
2022-12-08T00:12:00.499Z,97734.11
2022-12-08T00:15:21.416Z,97732.62
2022-12-08T00:18:28.473Z,97733.46
2022-12-08T00:21:01.826Z,97736.23
2022-12-08T00:23:34.047Z,97748.18
2022-12-08T00:26:08.015Z,97748.63
2022-12-08T00:33:03.276Z,97750.42
2022-12-08T00:35:41.554Z,97752.20
2022-12-08T00:39:04.750Z,97755.35
2022-12-08T00:42:00.979Z,97761.34
2022-12-08T00:44:33.232Z,97763.09
2022-12-08T00:47:13.054Z,97760.98
2022-12-08T00:49:45.803Z,97766.79
2022-12-08T00:52:25.145Z,97768.82
2022-12-08T00:59:30.464Z,97776.45
2022-12-08T01:07:17.150Z,97776.92
2022-12-08T01:09:52.932Z,97767.45
2022-12-08T01:12:32.755Z,97764.00
2022-12-08T01:15:06.249Z,97765.63
2022-12-08T01:17:45.561Z,97771.25
2022-12-08T01:20:18.017Z,97774.52
2022-12-08T01:22:50.439Z,97778.48
2022-12-08T01:25:29.511Z,97778.42
2022-12-08T01:33:18.439Z,97778.48
2022-12-08T01:35:50.744Z,97780.71
2022-12-08T01:38:23.390Z,97778.59
2022-12-08T01:41:02.710Z,97777.66
2022-12-08T01:48:34.258Z,97779.20
2022-12-08T01:51:08.085Z,97780.20
2022-12-08T01:53:41.650Z,97777.73
2022-12-08T02:01:26.291Z,97771.46
2022-12-08T02:07:49.779Z,97774.98
2022-12-08T02:15:15.638Z,97767.34
2022-12-08T02:22:18.144Z,97772.67
2022-12-08T02:39:18.521Z,97772.86
2022-12-08T02:46:23.871Z,97770.02
2022-12-08T02:54:01.588Z,97770.69
2022-12-08T03:06:09.542Z,97784.87
2022-12-08T03:17:52.277Z,97784.38
2022-12-08T03:20:27.064Z,97781.64
2022-12-08T03:28:21.431Z,97782.54
2022-12-08T03:41:09.253Z,97781.05
2022-12-08T03:43:41.520Z,97774.67
2022-12-08T03:46:13.865Z,97776.38
2022-12-08T03:54:24.156Z,97772.13
2022-12-08T03:56:56.443Z,97774.16
2022-12-08T03:59:54.288Z,97773.73
2022-12-08T04:03:38.680Z,97772.55
2022-12-08T04:06:11.529Z,97771.50
2022-12-08T04:08:44.056Z,97766.71
2022-12-08T04:16:30.902Z,97762.79
2022-12-08T04:19:04.587Z,97764.83
2022-12-08T04:21:43.922Z,97766.48
2022-12-08T04:24:16.634Z,97766.02
2022-12-08T04:26:55.801Z,97763.27
2022-12-08T04:29:27.918Z,97756.96
2022-12-08T04:32:47.219Z,97757.97
2022-12-08T04:40:12.693Z,97758.65
2022-12-08T04:42:51.273Z,97751.88
2022-12-08T04:46:11.528Z,97752.95
2022-12-08T04:57:48.029Z,97747.30
2022-12-08T05:00:21.782Z,97744.67
2022-12-08T05:29:52.841Z,97757.39
2022-12-08T05:32:25.062Z,97756.16
2022-12-08T05:34:57.316Z,97758.35
2022-12-08T05:38:33.057Z,97758.77
2022-12-08T05:41:14.632Z,97755.41
2022-12-08T05:49:17.158Z,97760.87
2022-12-08T05:51:55.817Z,97757.54
2022-12-08T05:54:28.203Z,97756.39
2022-12-08T05:57:06.837Z,97754.61
2022-12-08T05:59:39.739Z,97758.11
2022-12-08T06:02:12.134Z,97757.48
2022-12-08T06:05:32.506Z,97759.69
2022-12-08T06:08:05.062Z,97765.27
2022-12-08T06:15:02.693Z,97775.73
2022-12-08T06:17:37.506Z,97776.89
2022-12-08T06:20:16.276Z,97779.71
2022-12-08T06:22:48.788Z,97777.09
2022-12-08T06:29:51.880Z,97777.98
2022-12-08T06:32:27.399Z,97774.20
2022-12-08T06:35:01.288Z,97774.00
2022-12-08T06:46:28.414Z,97791.84
2022-12-08T06:49:06.977Z,97794.65
2022-12-08T06:51:39.355Z,97802.61
2022-12-08T06:54:18.000Z,97805.66
2022-12-08T06:56:50.463Z,97802.36
2022-12-08T07:17:53.565Z,97808.30
2022-12-08T07:21:25.167Z,97803.77
2022-12-08T07:23:58.128Z,97797.95
2022-12-08T07:26:37.824Z,97797.39
2022-12-08T07:34:01.012Z,97801.48
2022-12-08T07:36:34.767Z,97799.98
2022-12-08T07:40:01.999Z,97802.91
2022-12-08T07:42:34.553Z,97806.94
2022-12-08T07:46:01.436Z,97808.21
2022-12-08T07:48:33.784Z,97807.45
2022-12-08T07:51:07.903Z,97808.73
2022-12-08T07:53:42.840Z,97807.77
2022-12-08T08:06:07.588Z,97809.76
2022-12-08T08:08:39.928Z,97804.99
2022-12-08T08:11:18.916Z,97806.91
2022-12-08T08:14:10.806Z,97801.30
2022-12-08T08:16:46.884Z,97798.89
2022-12-08T08:19:19.280Z,97791.16
2022-12-08T08:21:51.521Z,97790.04
2022-12-08T08:28:53.935Z,97790.11
2022-12-08T08:31:28.851Z,97785.99
2022-12-08T08:38:31.852Z,97788.54
2022-12-08T08:41:58.284Z,97785.95
2022-12-08T08:44:34.274Z,97788.80
2022-12-08T08:47:06.796Z,97782.17
2022-12-08T08:49:46.861Z,97784.30
2022-12-08T08:52:26.137Z,97781.45
2022-12-08T08:54:58.323Z,97779.20
2022-12-08T08:57:57.736Z,97765.75
2022-12-08T09:00:30.091Z,97767.02
2022-12-08T09:03:02.465Z,97762.13
2022-12-08T09:05:42.453Z,97754.19
2022-12-08T09:08:14.847Z,97770.17
2022-12-08T09:10:53.971Z,97761.88
2022-12-08T09:13:26.099Z,97764.06
2022-12-08T09:16:58.703Z,97757.58
2022-12-08T09:19:31.869Z,97743.65
2022-12-08T09:26:34.037Z,97737.80
2022-12-08T09:29:14.901Z,97717.84
2022-12-08T09:31:47.337Z,97716.86
2022-12-08T09:34:19.686Z,97717.16
2022-12-08T09:37:02.770Z,97719.88
2022-12-08T09:39:35.735Z,97708.29
2022-12-08T09:42:34.100Z,97696.55
2022-12-08T09:50:02.179Z,97657.93
2022-12-08T09:53:01.577Z,97656.73
2022-12-08T10:08:47.388Z,97626.73
2022-12-08T10:11:54.558Z,97640.70
2022-12-08T10:18:41.517Z,97635.84
2022-12-08T10:22:01.221Z,97629.50
2022-12-08T10:28:30.436Z,97622.29
2022-12-08T10:35:11.094Z,97604.14
2022-12-08T10:41:18.774Z,97593.55
2022-12-08T10:47:17.020Z,97599.95
2022-12-08T10:49:49.326Z,97598.52
2022-12-08T11:05:38.034Z,97550.30
2022-12-08T11:08:18.990Z,97545.27
2022-12-08T11:10:51.506Z,97535.85
2022-12-08T11:22:40.952Z,97537.64
2022-12-08T11:30:07.217Z,97532.85
2022-12-08T11:33:51.572Z,97538.70
2022-12-08T11:36:27.005Z,97549.30
2022-12-08T11:39:54.829Z,97547.73
2022-12-08T11:56:12.946Z,97582.45
2022-12-08T12:03:32.538Z,97588.38
2022-12-08T12:11:11.471Z,97602.91
2022-12-08T12:26:32.527Z,97624.35
2022-12-08T12:29:29.622Z,97625.98
2022-12-08T12:32:05.112Z,97631.42
2022-12-08T12:35:48.345Z,97631.45
2022-12-08T12:45:44.071Z,97631.34
2022-12-08T12:49:06.771Z,97628.55
2022-12-08T12:56:03.968Z,97625.56
2022-12-08T12:58:46.510Z,97632.90
2022-12-08T13:02:16.455Z,97637.56
2022-12-08T13:09:48.108Z,97632.73
2022-12-08T13:21:40.098Z,97642.55
2022-12-08T13:29:16.766Z,97644.15
2022-12-08T13:31:57.159Z,97640.52
2022-12-08T13:34:39.367Z,97640.21
2022-12-08T13:38:20.829Z,97640.77
2022-12-08T13:41:02.620Z,97642.15
2022-12-08T14:00:35.997Z,97631.84
2022-12-08T14:07:42.568Z,97632.48
2022-12-08T14:19:58.941Z,97646.08
2022-12-08T14:26:56.788Z,97644.88
2022-12-08T14:34:18.610Z,97650.37
2022-12-08T14:36:50.987Z,97650.56
2022-12-08T14:43:30.170Z,97653.11
2022-12-08T14:46:05.295Z,97647.42
2022-12-08T14:48:55.448Z,97652.13
2022-12-08T14:51:32.814Z,97650.85
2022-12-08T14:54:16.003Z,97645.70
2022-12-08T15:13:58.313Z,97645.88
2022-12-08T15:29:49.522Z,97640.48
2022-12-08T15:32:28.833Z,97643.77
2022-12-08T15:35:01.157Z,97643.17
2022-12-08T15:37:40.677Z,97642.80
2022-12-08T15:44:44.720Z,97652.02
2022-12-08T15:48:30.069Z,97653.39
2022-12-08T15:51:02.395Z,97652.40
2022-12-08T16:07:33.083Z,97648.62
2022-12-08T16:25:41.228Z,97645.81
2022-12-08T16:32:28.192Z,97653.08
2022-12-08T16:35:49.467Z,97653.16
2022-12-08T16:43:13.313Z,97654.09
2022-12-08T16:55:08.117Z,97651.92
2022-12-08T16:58:30.869Z,97649.97
2022-12-08T17:05:26.073Z,97648.91
2022-12-08T17:08:04.790Z,97644.66
2022-12-08T17:10:39.496Z,97642.25
2022-12-08T17:14:07.896Z,97644.53
2022-12-08T17:20:49.590Z,97647.55
2022-12-08T17:24:21.979Z,97645.02
2022-12-08T17:27:04.200Z,97645.84
2022-12-08T17:30:27.754Z,97646.31
2022-12-08T17:33:06.757Z,97646.00
2022-12-08T17:35:38.876Z,97648.25
2022-12-08T17:38:18.425Z,97650.59
2022-12-08T17:40:56.932Z,97650.98
2022-12-08T17:44:28.223Z,97654.27
2022-12-08T17:56:01.711Z,97649.12
2022-12-08T17:58:40.697Z,97651.52
2022-12-08T18:01:13.885Z,97648.06
2022-12-08T18:03:52.960Z,97649.02
2022-12-08T18:06:29.609Z,97647.92
2022-12-08T18:10:02.054Z,97643.88
2022-12-08T18:31:18.938Z,97637.25
2022-12-08T18:34:33.947Z,97631.65
2022-12-08T18:37:47.610Z,97628.28
2022-12-08T18:40:20.633Z,97628.16
2022-12-08T18:43:00.297Z,97626.16
2022-12-08T18:45:33.871Z,97622.45
2022-12-08T18:48:12.696Z,97625.09
2022-12-08T18:55:38.207Z,97621.17
2022-12-08T18:58:18.820Z,97619.79
2022-12-08T19:00:51.161Z,97621.00
2022-12-08T19:03:30.928Z,97623.92
2022-12-08T19:06:30.130Z,97628.73
2022-12-08T19:14:40.879Z,97635.84
2022-12-08T19:21:46.526Z,97635.11
2022-12-08T19:25:08.833Z,97635.96
2022-12-08T19:27:48.257Z,97634.23
2022-12-08T19:30:20.560Z,97635.35
2022-12-08T19:32:58.992Z,97631.65
2022-12-08T19:35:33.287Z,97626.60
2022-12-08T19:38:12.998Z,97628.50
2022-12-08T19:45:40.531Z,97630.20
2022-12-08T19:49:07.804Z,97630.91
2022-12-08T19:56:31.508Z,97629.79
2022-12-08T19:59:10.164Z,97629.52
2022-12-08T20:01:42.402Z,97627.65
2022-12-08T20:04:21.890Z,97629.10
2022-12-08T20:06:55.882Z,97625.36
2022-12-08T20:09:36.000Z,97621.62
2022-12-08T20:12:09.553Z,97625.45
2022-12-08T20:14:48.188Z,97621.90
2022-12-08T20:17:20.596Z,97618.94
2022-12-08T20:20:02.593Z,97620.08
2022-12-08T20:23:27.948Z,97618.69
2022-12-08T20:26:09.882Z,97618.70
2022-12-08T20:33:24.983Z,97615.94
2022-12-08T20:36:47.199Z,97612.47
2022-12-08T20:39:25.951Z,97612.32
2022-12-08T20:42:00.226Z,97615.15
2022-12-08T20:44:53.018Z,97611.61
2022-12-08T20:47:25.817Z,97614.09
2022-12-08T20:50:06.560Z,97612.46
2022-12-08T20:52:40.623Z,97615.39
2022-12-08T20:55:23.934Z,97613.23
2022-12-08T21:03:36.340Z,97612.91
2022-12-08T21:06:16.072Z,97608.83
2022-12-08T21:22:40.310Z,97609.81
2022-12-08T21:25:11.415Z,97606.69
2022-12-08T21:27:53.194Z,97603.50
2022-12-08T21:31:17.365Z,97600.98
2022-12-08T21:34:46.214Z,97598.25
2022-12-08T21:37:18.934Z,97596.85
2022-12-08T21:39:58.115Z,97596.20
2022-12-08T21:46:59.356Z,97601.89
2022-12-08T21:49:38.212Z,97601.92
2022-12-08T21:52:10.702Z,97603.86
2022-12-08T21:55:19.151Z,97609.31
2022-12-08T22:03:33.202Z,97601.42
2022-12-08T22:06:25.811Z,97600.94
2022-12-08T22:09:05.696Z,97602.84
2022-12-08T22:11:38.223Z,97604.89
2022-12-08T22:14:17.118Z,97603.38
2022-12-08T22:16:50.218Z,97604.13
2022-12-08T22:19:29.059Z,97604.80
2022-12-08T22:22:01.597Z,97601.14
2022-12-08T22:25:00.404Z,97599.76
2022-12-08T22:33:13.767Z,97597.19
2022-12-08T22:36:14.290Z,97595.85
2022-12-08T22:43:51.806Z,97600.56
2022-12-08T22:46:26.536Z,97599.30
2022-12-08T22:50:22.775Z,97593.95
2022-12-08T22:52:55.030Z,97591.08
2022-12-08T22:56:09.708Z,97588.88
2022-12-08T23:03:33.355Z,97580.45
2022-12-08T23:33:44.776Z,97571.00
2022-12-08T23:36:19.028Z,97566.79
2022-12-08T23:43:01.214Z,97565.84
2022-12-08T23:45:33.830Z,97564.80
2022-12-08T23:48:39.178Z,97566.69
2022-12-08T23:51:12.117Z,97564.80
2022-12-08T23:53:51.371Z,97564.02
2022-12-08T23:56:28.634Z,97565.98
2022-12-08T23:59:59.301Z,97566.00
